sensor_id;sensor_type;location;lat;lon;timestamp;P1;durP1;ratioP1;P2;durP2;ratioP2
9524;SDS011;15940;48.734;9.112;2022-07-23T00:01:50;4.97;;;3.80;;
9524;SDS011;15940;48.734;9.112;2022-07-23T00:04:17;4.40;;;4.07;;
9524;SDS011;15940;48.734;9.112;2022-07-23T00:06:44;5.37;;;3.90;;
9524;SDS011;15940;48.734;9.112;2022-07-23T00:09:12;6.30;;;3.77;;
9524;SDS011;15940;48.734;9.112;2022-07-23T00:11:39;4.30;;;3.90;;
9524;SDS011;15940;48.734;9.112;2022-07-23T00:14:06;4.23;;;3.70;;
9524;SDS011;15940;48.734;9.112;2022-07-23T00:16:33;4.93;;;4.53;;
9524;SDS011;15940;48.734;9.112;2022-07-23T00:19:00;4.10;;;3.70;;
9524;SDS011;15940;48.734;9.112;2022-07-23T00:21:27;4.00;;;3.63;;
9524;SDS011;15940;48.734;9.112;2022-07-23T00:23:54;3.93;;;3.60;;
9524;SDS011;15940;48.734;9.112;2022-07-23T00:26:23;4.07;;;3.70;;
9524;SDS011;15940;48.734;9.112;2022-07-23T00:28:50;4.90;;;3.80;;
9524;SDS011;15940;48.734;9.112;2022-07-23T00:31:17;4.03;;;3.73;;
9524;SDS011;15940;48.734;9.112;2022-07-23T00:33:44;3.73;;;3.43;;
9524;SDS011;15940;48.734;9.112;2022-07-23T00:36:10;4.60;;;3.70;;
9524;SDS011;15940;48.734;9.112;2022-07-23T00:38:37;4.00;;;3.60;;
9524;SDS011;15940;48.734;9.112;2022-07-23T00:41:04;4.50;;;3.83;;
9524;SDS011;15940;48.734;9.112;2022-07-23T00:43:33;4.70;;;3.73;;
9524;SDS011;15940;48.734;9.112;2022-07-23T00:46:00;4.33;;;4.00;;
9524;SDS011;15940;48.734;9.112;2022-07-23T00:48:27;3.90;;;3.60;;
9524;SDS011;15940;48.734;9.112;2022-07-23T00:50:53;4.47;;;4.07;;
9524;SDS011;15940;48.734;9.112;2022-07-23T00:53:20;4.27;;;3.97;;
9524;SDS011;15940;48.734;9.112;2022-07-23T00:55:48;4.67;;;3.90;;
9524;SDS011;15940;48.734;9.112;2022-07-23T00:58:15;5.07;;;3.93;;
9524;SDS011;15940;48.734;9.112;2022-07-23T01:00:46;4.40;;;4.00;;
9524;SDS011;15940;48.734;9.112;2022-07-23T01:03:12;4.27;;;3.87;;
9524;SDS011;15940;48.734;9.112;2022-07-23T01:05:39;6.10;;;3.83;;
9524;SDS011;15940;48.734;9.112;2022-07-23T01:08:06;4.33;;;3.93;;
9524;SDS011;15940;48.734;9.112;2022-07-23T01:10:33;4.13;;;3.70;;
9524;SDS011;15940;48.734;9.112;2022-07-23T01:13:01;4.20;;;3.90;;
9524;SDS011;15940;48.734;9.112;2022-07-23T01:15:30;4.60;;;4.07;;
9524;SDS011;15940;48.734;9.112;2022-07-23T01:17:59;4.43;;;4.03;;
9524;SDS011;15940;48.734;9.112;2022-07-23T01:20:26;4.50;;;4.10;;
9524;SDS011;15940;48.734;9.112;2022-07-23T01:22:54;4.20;;;3.90;;
9524;SDS011;15940;48.734;9.112;2022-07-23T01:25:21;5.10;;;4.60;;
9524;SDS011;15940;48.734;9.112;2022-07-23T01:27:49;6.20;;;5.60;;
9524;SDS011;15940;48.734;9.112;2022-07-23T01:30:18;6.20;;;5.60;;
9524;SDS011;15940;48.734;9.112;2022-07-23T01:32:45;5.30;;;4.90;;
9524;SDS011;15940;48.734;9.112;2022-07-23T01:35:13;5.47;;;4.63;;
9524;SDS011;15940;48.734;9.112;2022-07-23T01:37:40;4.63;;;4.33;;
9524;SDS011;15940;48.734;9.112;2022-07-23T01:40:08;5.33;;;4.70;;
9524;SDS011;15940;48.734;9.112;2022-07-23T01:42:35;5.20;;;4.80;;
9524;SDS011;15940;48.734;9.112;2022-07-23T01:45:03;4.23;;;3.83;;
9524;SDS011;15940;48.734;9.112;2022-07-23T01:47:31;4.50;;;4.13;;
9524;SDS011;15940;48.734;9.112;2022-07-23T01:49:58;5.63;;;3.70;;
9524;SDS011;15940;48.734;9.112;2022-07-23T01:52:25;7.07;;;4.67;;
9524;SDS011;15940;48.734;9.112;2022-07-23T01:54:52;4.50;;;4.10;;
9524;SDS011;15940;48.734;9.112;2022-07-23T01:57:20;4.73;;;4.27;;
9524;SDS011;15940;48.734;9.112;2022-07-23T01:59:47;4.40;;;4.10;;
9524;SDS011;15940;48.734;9.112;2022-07-23T02:02:14;4.73;;;4.33;;
9524;SDS011;15940;48.734;9.112;2022-07-23T02:04:41;4.97;;;4.57;;
9524;SDS011;15940;48.734;9.112;2022-07-23T02:07:08;4.30;;;3.83;;
9524;SDS011;15940;48.734;9.112;2022-07-23T02:09:35;4.90;;;4.60;;
9524;SDS011;15940;48.734;9.112;2022-07-23T02:12:02;4.53;;;4.10;;
9524;SDS011;15940;48.734;9.112;2022-07-23T02:14:31;4.20;;;3.90;;
9524;SDS011;15940;48.734;9.112;2022-07-23T02:16:58;4.53;;;4.23;;
9524;SDS011;15940;48.734;9.112;2022-07-23T02:19:25;5.33;;;4.10;;
9524;SDS011;15940;48.734;9.112;2022-07-23T02:21:52;4.67;;;4.27;;
9524;SDS011;15940;48.734;9.112;2022-07-23T02:24:19;4.27;;;3.87;;
9524;SDS011;15940;48.734;9.112;2022-07-23T02:26:46;4.50;;;4.17;;
9524;SDS011;15940;48.734;9.112;2022-07-23T02:29:13;3.93;;;3.63;;
9524;SDS011;15940;48.734;9.112;2022-07-23T02:31:41;3.90;;;3.60;;
9524;SDS011;15940;48.734;9.112;2022-07-23T02:34:09;4.20;;;3.83;;
9524;SDS011;15940;48.734;9.112;2022-07-23T02:36:37;4.60;;;4.20;;
9524;SDS011;15940;48.734;9.112;2022-07-23T02:39:04;4.60;;;4.20;;
9524;SDS011;15940;48.734;9.112;2022-07-23T02:41:31;4.93;;;3.83;;
9524;SDS011;15940;48.734;9.112;2022-07-23T02:43:58;4.10;;;3.70;;
9524;SDS011;15940;48.734;9.112;2022-07-23T02:46:25;4.67;;;4.27;;
9524;SDS011;15940;48.734;9.112;2022-07-23T02:48:53;4.30;;;4.00;;
9524;SDS011;15940;48.734;9.112;2022-07-23T02:51:20;5.57;;;4.07;;
9524;SDS011;15940;48.734;9.112;2022-07-23T02:53:47;5.07;;;3.90;;
9524;SDS011;15940;48.734;9.112;2022-07-23T02:56:14;4.37;;;4.07;;
9524;SDS011;15940;48.734;9.112;2022-07-23T02:58:41;4.67;;;4.20;;
9524;SDS011;15940;48.734;9.112;2022-07-23T03:01:08;4.30;;;4.00;;
9524;SDS011;15940;48.734;9.112;2022-07-23T03:03:35;4.97;;;4.30;;
9524;SDS011;15940;48.734;9.112;2022-07-23T03:06:04;4.57;;;3.80;;
9524;SDS011;15940;48.734;9.112;2022-07-23T03:08:31;4.53;;;4.13;;
9524;SDS011;15940;48.734;9.112;2022-07-23T03:10:58;5.40;;;4.07;;
9524;SDS011;15940;48.734;9.112;2022-07-23T03:13:25;4.63;;;4.17;;
9524;SDS011;15940;48.734;9.112;2022-07-23T03:15:52;4.40;;;4.00;;
9524;SDS011;15940;48.734;9.112;2022-07-23T03:18:25;5.17;;;4.67;;
9524;SDS011;15940;48.734;9.112;2022-07-23T03:20:53;4.30;;;4.00;;
9524;SDS011;15940;48.734;9.112;2022-07-23T03:23:21;6.03;;;4.70;;
9524;SDS011;15940;48.734;9.112;2022-07-23T03:25:48;4.37;;;4.00;;
9524;SDS011;15940;48.734;9.112;2022-07-23T03:28:15;4.30;;;4.00;;
9524;SDS011;15940;48.734;9.112;2022-07-23T03:30:42;4.57;;;4.20;;
9524;SDS011;15940;48.734;9.112;2022-07-23T03:33:11;4.60;;;4.20;;
9524;SDS011;15940;48.734;9.112;2022-07-23T03:35:38;4.63;;;4.23;;
9524;SDS011;15940;48.734;9.112;2022-07-23T03:38:05;5.10;;;4.70;;
9524;SDS011;15940;48.734;9.112;2022-07-23T03:40:33;4.63;;;4.30;;
9524;SDS011;15940;48.734;9.112;2022-07-23T03:43:01;4.40;;;4.00;;
9524;SDS011;15940;48.734;9.112;2022-07-23T03:45:28;4.73;;;4.33;;
9524;SDS011;15940;48.734;9.112;2022-07-23T03:47:55;4.80;;;4.50;;
9524;SDS011;15940;48.734;9.112;2022-07-23T03:50:22;4.83;;;4.43;;
9524;SDS011;15940;48.734;9.112;2022-07-23T03:52:49;4.60;;;4.20;;
9524;SDS011;15940;48.734;9.112;2022-07-23T03:55:16;4.50;;;4.10;;
9524;SDS011;15940;48.734;9.112;2022-07-23T03:57:45;4.50;;;4.20;;
9524;SDS011;15940;48.734;9.112;2022-07-23T04:00:12;4.70;;;4.20;;
9524;SDS011;15940;48.734;9.112;2022-07-23T04:02:40;5.93;;;5.33;;
9524;SDS011;15940;48.734;9.112;2022-07-23T04:05:07;4.67;;;4.17;;
9524;SDS011;15940;48.734;9.112;2022-07-23T04:07:34;4.70;;;4.40;;
9524;SDS011;15940;48.734;9.112;2022-07-23T04:10:01;4.93;;;4.53;;
9524;SDS011;15940;48.734;9.112;2022-07-23T04:12:29;6.87;;;4.40;;
9524;SDS011;15940;48.734;9.112;2022-07-23T04:14:57;4.60;;;4.20;;
9524;SDS011;15940;48.734;9.112;2022-07-23T04:17:24;5.83;;;4.53;;
9524;SDS011;15940;48.734;9.112;2022-07-23T04:19:51;4.30;;;4.00;;
9524;SDS011;15940;48.734;9.112;2022-07-23T04:22:18;6.00;;;4.53;;
9524;SDS011;15940;48.734;9.112;2022-07-23T04:24:45;6.17;;;4.50;;
9524;SDS011;15940;48.734;9.112;2022-07-23T04:27:12;5.40;;;4.90;;
9524;SDS011;15940;48.734;9.112;2022-07-23T04:29:39;4.90;;;4.60;;
9524;SDS011;15940;48.734;9.112;2022-07-23T04:32:07;5.30;;;4.83;;
9524;SDS011;15940;48.734;9.112;2022-07-23T04:34:34;5.00;;;4.60;;
9524;SDS011;15940;48.734;9.112;2022-07-23T04:37:01;5.27;;;4.77;;
9524;SDS011;15940;48.734;9.112;2022-07-23T04:39:28;4.80;;;4.40;;
9524;SDS011;15940;48.734;9.112;2022-07-23T04:41:55;4.60;;;4.20;;
9524;SDS011;15940;48.734;9.112;2022-07-23T04:44:22;5.97;;;3.93;;
9524;SDS011;15940;48.734;9.112;2022-07-23T04:46:49;4.77;;;4.37;;
9524;SDS011;15940;48.734;9.112;2022-07-23T04:49:17;5.20;;;4.80;;
9524;SDS011;15940;48.734;9.112;2022-07-23T04:51:44;4.63;;;4.30;;
9524;SDS011;15940;48.734;9.112;2022-07-23T04:54:11;4.97;;;4.57;;
9524;SDS011;15940;48.734;9.112;2022-07-23T04:56:38;4.80;;;4.40;;
9524;SDS011;15940;48.734;9.112;2022-07-23T04:59:05;4.80;;;4.30;;
9524;SDS011;15940;48.734;9.112;2022-07-23T05:01:32;5.10;;;4.23;;
9524;SDS011;15940;48.734;9.112;2022-07-23T05:03:59;4.63;;;4.23;;
9524;SDS011;15940;48.734;9.112;2022-07-23T05:06:27;4.83;;;4.43;;
9524;SDS011;15940;48.734;9.112;2022-07-23T05:08:54;4.70;;;4.30;;
9524;SDS011;15940;48.734;9.112;2022-07-23T05:11:21;5.43;;;4.30;;
9524;SDS011;15940;48.734;9.112;2022-07-23T05:13:48;4.80;;;4.30;;
9524;SDS011;15940;48.734;9.112;2022-07-23T05:16:16;4.60;;;4.30;;
9524;SDS011;15940;48.734;9.112;2022-07-23T05:18:43;4.70;;;4.27;;
9524;SDS011;15940;48.734;9.112;2022-07-23T05:21:10;4.90;;;4.47;;
9524;SDS011;15940;48.734;9.112;2022-07-23T05:23:38;4.80;;;4.43;;
9524;SDS011;15940;48.734;9.112;2022-07-23T05:26:05;5.37;;;4.33;;
9524;SDS011;15940;48.734;9.112;2022-07-23T05:28:32;4.80;;;4.47;;
9524;SDS011;15940;48.734;9.112;2022-07-23T05:30:59;6.10;;;4.60;;
9524;SDS011;15940;48.734;9.112;2022-07-23T05:33:26;5.60;;;4.50;;
9524;SDS011;15940;48.734;9.112;2022-07-23T05:35:53;5.27;;;4.87;;
9524;SDS011;15940;48.734;9.112;2022-07-23T05:38:19;5.03;;;4.63;;
9524;SDS011;15940;48.734;9.112;2022-07-23T05:40:48;5.13;;;4.73;;
9524;SDS011;15940;48.734;9.112;2022-07-23T05:43:15;5.03;;;4.63;;
9524;SDS011;15940;48.734;9.112;2022-07-23T05:45:41;5.73;;;4.87;;
9524;SDS011;15940;48.734;9.112;2022-07-23T05:48:08;7.67;;;4.70;;
9524;SDS011;15940;48.734;9.112;2022-07-23T05:50:35;5.87;;;4.40;;
9524;SDS011;15940;48.734;9.112;2022-07-23T05:53:03;7.53;;;4.47;;
9524;SDS011;15940;48.734;9.112;2022-07-23T05:55:30;5.43;;;4.93;;
9524;SDS011;15940;48.734;9.112;2022-07-23T05:57:58;5.87;;;4.67;;
9524;SDS011;15940;48.734;9.112;2022-07-23T06:00:26;5.20;;;4.70;;
9524;SDS011;15940;48.734;9.112;2022-07-23T06:02:54;6.80;;;4.57;;
9524;SDS011;15940;48.734;9.112;2022-07-23T06:05:21;5.07;;;4.47;;
9524;SDS011;15940;48.734;9.112;2022-07-23T06:07:48;5.10;;;4.70;;
9524;SDS011;15940;48.734;9.112;2022-07-23T06:10:15;4.73;;;4.33;;
9524;SDS011;15940;48.734;9.112;2022-07-23T06:12:42;4.60;;;4.27;;
9524;SDS011;15940;48.734;9.112;2022-07-23T06:15:11;4.97;;;4.57;;
9524;SDS011;15940;48.734;9.112;2022-07-23T06:17:38;4.87;;;4.47;;
9524;SDS011;15940;48.734;9.112;2022-07-23T06:20:06;5.47;;;4.97;;
9524;SDS011;15940;48.734;9.112;2022-07-23T06:22:34;5.13;;;4.73;;
9524;SDS011;15940;48.734;9.112;2022-07-23T06:25:01;4.93;;;4.53;;
9524;SDS011;15940;48.734;9.112;2022-07-23T06:27:29;5.17;;;4.60;;
9524;SDS011;15940;48.734;9.112;2022-07-23T06:29:56;6.43;;;5.03;;
9524;SDS011;15940;48.734;9.112;2022-07-23T06:32:24;4.80;;;4.37;;
9524;SDS011;15940;48.734;9.112;2022-07-23T06:34:51;5.23;;;4.80;;
9524;SDS011;15940;48.734;9.112;2022-07-23T06:37:18;4.60;;;4.30;;
9524;SDS011;15940;48.734;9.112;2022-07-23T06:39:45;4.73;;;4.40;;
9524;SDS011;15940;48.734;9.112;2022-07-23T06:42:12;5.20;;;4.43;;
9524;SDS011;15940;48.734;9.112;2022-07-23T06:44:40;4.73;;;4.33;;
9524;SDS011;15940;48.734;9.112;2022-07-23T06:47:07;4.60;;;4.20;;
9524;SDS011;15940;48.734;9.112;2022-07-23T06:49:36;5.23;;;4.73;;
9524;SDS011;15940;48.734;9.112;2022-07-23T06:52:06;4.97;;;4.57;;
9524;SDS011;15940;48.734;9.112;2022-07-23T06:54:33;5.20;;;4.80;;
9524;SDS011;15940;48.734;9.112;2022-07-23T06:57:00;4.80;;;4.37;;
9524;SDS011;15940;48.734;9.112;2022-07-23T06:59:27;4.73;;;4.33;;
9524;SDS011;15940;48.734;9.112;2022-07-23T07:01:54;4.80;;;4.40;;
9524;SDS011;15940;48.734;9.112;2022-07-23T07:04:22;5.03;;;4.63;;
9524;SDS011;15940;48.734;9.112;2022-07-23T07:06:50;6.17;;;4.63;;
9524;SDS011;15940;48.734;9.112;2022-07-23T07:09:17;5.40;;;4.97;;
9524;SDS011;15940;48.734;9.112;2022-07-23T07:11:44;5.30;;;4.80;;
9524;SDS011;15940;48.734;9.112;2022-07-23T07:14:11;5.00;;;4.60;;
9524;SDS011;15940;48.734;9.112;2022-07-23T07:16:38;5.87;;;4.90;;
9524;SDS011;15940;48.734;9.112;2022-07-23T07:19:05;4.83;;;4.43;;
9524;SDS011;15940;48.734;9.112;2022-07-23T07:21:32;5.00;;;4.60;;
9524;SDS011;15940;48.734;9.112;2022-07-23T07:24:01;9.17;;;4.70;;
9524;SDS011;15940;48.734;9.112;2022-07-23T07:26:32;7.90;;;4.77;;
9524;SDS011;15940;48.734;9.112;2022-07-23T07:29:00;6.27;;;4.87;;
9524;SDS011;15940;48.734;9.112;2022-07-23T07:31:27;5.57;;;4.60;;
9524;SDS011;15940;48.734;9.112;2022-07-23T07:33:54;7.53;;;4.87;;
9524;SDS011;15940;48.734;9.112;2022-07-23T07:36:21;6.77;;;4.70;;
9524;SDS011;15940;48.734;9.112;2022-07-23T07:38:49;5.53;;;4.30;;
9524;SDS011;15940;48.734;9.112;2022-07-23T07:41:17;8.80;;;4.93;;
9524;SDS011;15940;48.734;9.112;2022-07-23T07:43:47;4.73;;;4.33;;
9524;SDS011;15940;48.734;9.112;2022-07-23T07:46:14;4.87;;;4.37;;
9524;SDS011;15940;48.734;9.112;2022-07-23T07:48:41;7.67;;;4.73;;
9524;SDS011;15940;48.734;9.112;2022-07-23T07:51:08;4.93;;;4.43;;
9524;SDS011;15940;48.734;9.112;2022-07-23T07:53:35;5.00;;;4.60;;
9524;SDS011;15940;48.734;9.112;2022-07-23T07:56:02;5.93;;;4.77;;
9524;SDS011;15940;48.734;9.112;2022-07-23T07:58:31;6.20;;;4.80;;
9524;SDS011;15940;48.734;9.112;2022-07-23T08:00:58;4.70;;;4.30;;
9524;SDS011;15940;48.734;9.112;2022-07-23T08:03:25;4.93;;;4.53;;
9524;SDS011;15940;48.734;9.112;2022-07-23T08:05:52;4.80;;;4.40;;
9524;SDS011;15940;48.734;9.112;2022-07-23T08:08:19;5.47;;;4.43;;
9524;SDS011;15940;48.734;9.112;2022-07-23T08:10:46;5.00;;;4.60;;
9524;SDS011;15940;48.734;9.112;2022-07-23T08:13:13;4.70;;;4.30;;
9524;SDS011;15940;48.734;9.112;2022-07-23T08:15:44;5.03;;;4.60;;
9524;SDS011;15940;48.734;9.112;2022-07-23T08:18:11;4.90;;;4.40;;
9524;SDS011;15940;48.734;9.112;2022-07-23T08:20:38;4.50;;;4.20;;
9524;SDS011;15940;48.734;9.112;2022-07-23T08:23:05;4.50;;;4.20;;
9524;SDS011;15940;48.734;9.112;2022-07-23T08:25:34;4.60;;;4.20;;
9524;SDS011;15940;48.734;9.112;2022-07-23T08:28:05;4.70;;;4.30;;
9524;SDS011;15940;48.734;9.112;2022-07-23T08:30:33;4.67;;;4.33;;
9524;SDS011;15940;48.734;9.112;2022-07-23T08:33:03;5.37;;;4.93;;
9524;SDS011;15940;48.734;9.112;2022-07-23T08:35:37;5.03;;;4.63;;
9524;SDS011;15940;48.734;9.112;2022-07-23T08:38:06;4.77;;;4.37;;
9524;SDS011;15940;48.734;9.112;2022-07-23T08:40:36;5.03;;;4.53;;
9524;SDS011;15940;48.734;9.112;2022-07-23T08:43:06;4.80;;;4.40;;
9524;SDS011;15940;48.734;9.112;2022-07-23T08:45:37;5.30;;;4.80;;
9524;SDS011;15940;48.734;9.112;2022-07-23T08:48:07;4.73;;;4.33;;
9524;SDS011;15940;48.734;9.112;2022-07-23T08:50:40;5.00;;;4.33;;
9524;SDS011;15940;48.734;9.112;2022-07-23T08:53:10;4.93;;;4.17;;
9524;SDS011;15940;48.734;9.112;2022-07-23T08:55:37;4.97;;;4.57;;
9524;SDS011;15940;48.734;9.112;2022-07-23T08:58:04;4.47;;;4.07;;
9524;SDS011;15940;48.734;9.112;2022-07-23T09:00:32;6.17;;;4.43;;
9524;SDS011;15940;48.734;9.112;2022-07-23T09:02:59;4.27;;;3.87;;
9524;SDS011;15940;48.734;9.112;2022-07-23T09:05:27;4.57;;;4.17;;
9524;SDS011;15940;48.734;9.112;2022-07-23T09:10:45;4.87;;;4.37;;
9524;SDS011;15940;48.734;9.112;2022-07-23T09:16:09;4.63;;;4.13;;
9524;SDS011;15940;48.734;9.112;2022-07-23T09:18:41;4.27;;;3.87;;
9524;SDS011;15940;48.734;9.112;2022-07-23T09:21:13;5.53;;;4.10;;
9524;SDS011;15940;48.734;9.112;2022-07-23T09:23:44;4.90;;;4.40;;
9524;SDS011;15940;48.734;9.112;2022-07-23T09:26:20;4.57;;;4.17;;
9524;SDS011;15940;48.734;9.112;2022-07-23T09:28:51;3.87;;;3.67;;
9524;SDS011;15940;48.734;9.112;2022-07-23T09:31:22;4.27;;;3.73;;
9524;SDS011;15940;48.734;9.112;2022-07-23T09:33:51;4.20;;;3.90;;
9524;SDS011;15940;48.734;9.112;2022-07-23T09:36:33;4.53;;;4.20;;
9524;SDS011;15940;48.734;9.112;2022-07-23T09:39:00;4.20;;;3.90;;
9524;SDS011;15940;48.734;9.112;2022-07-23T09:41:29;4.83;;;4.43;;
9524;SDS011;15940;48.734;9.112;2022-07-23T09:44:07;4.83;;;4.33;;
9524;SDS011;15940;48.734;9.112;2022-07-23T09:46:36;4.30;;;4.00;;
9524;SDS011;15940;48.734;9.112;2022-07-23T09:49:16;4.60;;;4.30;;
9524;SDS011;15940;48.734;9.112;2022-07-23T09:51:47;4.87;;;4.20;;
9524;SDS011;15940;48.734;9.112;2022-07-23T09:57:06;4.53;;;4.13;;
9524;SDS011;15940;48.734;9.112;2022-07-23T09:59:39;4.40;;;4.10;;
9524;SDS011;15940;48.734;9.112;2022-07-23T10:02:07;4.33;;;4.03;;
9524;SDS011;15940;48.734;9.112;2022-07-23T10:04:35;5.00;;;4.50;;
9524;SDS011;15940;48.734;9.112;2022-07-23T10:07:04;4.27;;;3.97;;
9524;SDS011;15940;48.734;9.112;2022-07-23T10:09:35;4.70;;;4.30;;
9524;SDS011;15940;48.734;9.112;2022-07-23T10:12:05;5.53;;;4.20;;
9524;SDS011;15940;48.734;9.112;2022-07-23T10:14:42;4.57;;;4.20;;
9524;SDS011;15940;48.734;9.112;2022-07-23T10:17:10;4.93;;;4.50;;
9524;SDS011;15940;48.734;9.112;2022-07-23T10:19:37;4.43;;;4.03;;
9524;SDS011;15940;48.734;9.112;2022-07-23T10:22:08;3.97;;;3.73;;
9524;SDS011;15940;48.734;9.112;2022-07-23T10:24:53;5.00;;;4.60;;
9524;SDS011;15940;48.734;9.112;2022-07-23T10:27:34;4.70;;;4.33;;
9524;SDS011;15940;48.734;9.112;2022-07-23T10:30:20;5.67;;;4.60;;
9524;SDS011;15940;48.734;9.112;2022-07-23T10:33:09;5.10;;;4.40;;
9524;SDS011;15940;48.734;9.112;2022-07-23T10:35:48;4.90;;;4.40;;
9524;SDS011;15940;48.734;9.112;2022-07-23T10:38:24;4.60;;;4.30;;
9524;SDS011;15940;48.734;9.112;2022-07-23T10:40:56;4.57;;;4.17;;
9524;SDS011;15940;48.734;9.112;2022-07-23T10:43:26;4.83;;;4.43;;
9524;SDS011;15940;48.734;9.112;2022-07-23T10:45:54;4.83;;;4.43;;
9524;SDS011;15940;48.734;9.112;2022-07-23T10:48:42;4.90;;;4.50;;
9524;SDS011;15940;48.734;9.112;2022-07-23T10:51:10;4.83;;;4.40;;
9524;SDS011;15940;48.734;9.112;2022-07-23T10:53:55;4.43;;;4.13;;
9524;SDS011;15940;48.734;9.112;2022-07-23T10:59:30;4.53;;;4.17;;
9524;SDS011;15940;48.734;9.112;2022-07-23T11:02:22;4.87;;;4.47;;
9524;SDS011;15940;48.734;9.112;2022-07-23T11:04:51;4.20;;;3.90;;
9524;SDS011;15940;48.734;9.112;2022-07-23T11:07:19;5.10;;;4.70;;
9524;SDS011;15940;48.734;9.112;2022-07-23T11:09:48;4.40;;;4.10;;
9524;SDS011;15940;48.734;9.112;2022-07-23T11:15:06;4.87;;;4.30;;
9524;SDS011;15940;48.734;9.112;2022-07-23T11:17:35;4.93;;;4.53;;
9524;SDS011;15940;48.734;9.112;2022-07-23T11:20:21;4.47;;;4.17;;
9524;SDS011;15940;48.734;9.112;2022-07-23T11:22:50;4.77;;;4.47;;
9524;SDS011;15940;48.734;9.112;2022-07-23T11:25:39;4.70;;;4.23;;
9524;SDS011;15940;48.734;9.112;2022-07-23T11:28:08;5.10;;;4.70;;
9524;SDS011;15940;48.734;9.112;2022-07-23T11:30:42;5.33;;;4.90;;
9524;SDS011;15940;48.734;9.112;2022-07-23T11:33:18;4.73;;;4.30;;
9524;SDS011;15940;48.734;9.112;2022-07-23T11:35:48;5.13;;;4.73;;
9524;SDS011;15940;48.734;9.112;2022-07-23T11:38:27;4.77;;;4.47;;
9524;SDS011;15940;48.734;9.112;2022-07-23T11:40:57;4.47;;;4.20;;
9524;SDS011;15940;48.734;9.112;2022-07-23T11:43:24;5.10;;;4.70;;
9524;SDS011;15940;48.734;9.112;2022-07-23T11:45:52;5.13;;;4.57;;
9524;SDS011;15940;48.734;9.112;2022-07-23T11:48:25;5.33;;;4.90;;
9524;SDS011;15940;48.734;9.112;2022-07-23T11:50:54;5.00;;;4.60;;
9524;SDS011;15940;48.734;9.112;2022-07-23T11:53:22;5.67;;;4.27;;
9524;SDS011;15940;48.734;9.112;2022-07-23T11:55:50;4.47;;;4.17;;
9524;SDS011;15940;48.734;9.112;2022-07-23T11:58:20;4.60;;;4.20;;
9524;SDS011;15940;48.734;9.112;2022-07-23T12:00:47;5.37;;;4.93;;
9524;SDS011;15940;48.734;9.112;2022-07-23T12:03:16;4.70;;;4.40;;
9524;SDS011;15940;48.734;9.112;2022-07-23T12:05:42;5.10;;;4.60;;
9524;SDS011;15940;48.734;9.112;2022-07-23T12:08:09;4.77;;;4.37;;
9524;SDS011;15940;48.734;9.112;2022-07-23T12:10:37;5.00;;;4.60;;
9524;SDS011;15940;48.734;9.112;2022-07-23T12:13:08;5.37;;;4.93;;
9524;SDS011;15940;48.734;9.112;2022-07-23T12:15:39;5.10;;;4.70;;
9524;SDS011;15940;48.734;9.112;2022-07-23T12:18:10;5.57;;;4.80;;
9524;SDS011;15940;48.734;9.112;2022-07-23T12:20:42;5.20;;;4.80;;
9524;SDS011;15940;48.734;9.112;2022-07-23T12:23:12;5.67;;;4.83;;
9524;SDS011;15940;48.734;9.112;2022-07-23T12:25:42;4.90;;;4.57;;
9524;SDS011;15940;48.734;9.112;2022-07-23T12:28:12;5.73;;;5.13;;
9524;SDS011;15940;48.734;9.112;2022-07-23T12:30:44;5.30;;;4.90;;
9524;SDS011;15940;48.734;9.112;2022-07-23T12:33:13;5.03;;;4.53;;
9524;SDS011;15940;48.734;9.112;2022-07-23T12:35:47;5.47;;;5.03;;
9524;SDS011;15940;48.734;9.112;2022-07-23T12:38:15;5.03;;;4.67;;
9524;SDS011;15940;48.734;9.112;2022-07-23T12:40:45;4.43;;;4.13;;
9524;SDS011;15940;48.734;9.112;2022-07-23T12:43:18;5.10;;;4.70;;
9524;SDS011;15940;48.734;9.112;2022-07-23T12:45:50;5.30;;;4.90;;
9524;SDS011;15940;48.734;9.112;2022-07-23T12:48:20;5.20;;;4.80;;
9524;SDS011;15940;48.734;9.112;2022-07-23T12:50:50;5.43;;;5.00;;
9524;SDS011;15940;48.734;9.112;2022-07-23T12:53:24;6.03;;;5.53;;
9524;SDS011;15940;48.734;9.112;2022-07-23T12:55:57;5.03;;;4.73;;
9524;SDS011;15940;48.734;9.112;2022-07-23T12:58:38;5.80;;;5.30;;
9524;SDS011;15940;48.734;9.112;2022-07-23T13:01:10;5.67;;;4.87;;
9524;SDS011;15940;48.734;9.112;2022-07-23T13:03:55;5.30;;;4.90;;
9524;SDS011;15940;48.734;9.112;2022-07-23T13:06:24;5.33;;;4.77;;
9524;SDS011;15940;48.734;9.112;2022-07-23T13:08:53;5.13;;;4.70;;
9524;SDS011;15940;48.734;9.112;2022-07-23T13:11:20;4.57;;;4.17;;
9524;SDS011;15940;48.734;9.112;2022-07-23T13:13:47;4.97;;;4.57;;
9524;SDS011;15940;48.734;9.112;2022-07-23T13:16:15;4.97;;;4.60;;
9524;SDS011;15940;48.734;9.112;2022-07-23T13:18:43;4.90;;;4.50;;
9524;SDS011;15940;48.734;9.112;2022-07-23T13:21:10;5.17;;;4.67;;
9524;SDS011;15940;48.734;9.112;2022-07-23T13:23:37;5.07;;;4.67;;
9524;SDS011;15940;48.734;9.112;2022-07-23T13:26:04;7.17;;;4.77;;
9524;SDS011;15940;48.734;9.112;2022-07-23T13:28:31;5.13;;;4.70;;
9524;SDS011;15940;48.734;9.112;2022-07-23T13:30:58;5.20;;;4.80;;
9524;SDS011;15940;48.734;9.112;2022-07-23T13:33:26;5.33;;;4.93;;
9524;SDS011;15940;48.734;9.112;2022-07-23T13:35:53;5.50;;;5.00;;
9524;SDS011;15940;48.734;9.112;2022-07-23T13:38:20;5.03;;;4.60;;
9524;SDS011;15940;48.734;9.112;2022-07-23T13:40:49;4.97;;;4.47;;
9524;SDS011;15940;48.734;9.112;2022-07-23T13:43:18;10.77;;;4.77;;
9524;SDS011;15940;48.734;9.112;2022-07-23T13:45:47;6.67;;;5.00;;
9524;SDS011;15940;48.734;9.112;2022-07-23T13:48:15;5.77;;;5.07;;
9524;SDS011;15940;48.734;9.112;2022-07-23T13:50:45;6.57;;;4.63;;
9524;SDS011;15940;48.734;9.112;2022-07-23T13:53:14;5.10;;;4.70;;
9524;SDS011;15940;48.734;9.112;2022-07-23T13:55:43;5.80;;;5.00;;
9524;SDS011;15940;48.734;9.112;2022-07-23T13:58:12;5.13;;;4.73;;
9524;SDS011;15940;48.734;9.112;2022-07-23T14:00:41;5.47;;;4.97;;
9524;SDS011;15940;48.734;9.112;2022-07-23T14:03:11;5.30;;;4.80;;
9524;SDS011;15940;48.734;9.112;2022-07-23T14:05:38;5.93;;;5.43;;
9524;SDS011;15940;48.734;9.112;2022-07-23T14:08:08;5.37;;;4.97;;
9524;SDS011;15940;48.734;9.112;2022-07-23T14:10:36;5.63;;;4.87;;
9524;SDS011;15940;48.734;9.112;2022-07-23T14:13:03;5.23;;;4.83;;
9524;SDS011;15940;48.734;9.112;2022-07-23T14:15:31;6.07;;;5.47;;
9524;SDS011;15940;48.734;9.112;2022-07-23T14:17:59;5.87;;;5.03;;
9524;SDS011;15940;48.734;9.112;2022-07-23T14:20:26;5.33;;;4.83;;
9524;SDS011;15940;48.734;9.112;2022-07-23T14:22:53;5.70;;;5.20;;
9524;SDS011;15940;48.734;9.112;2022-07-23T14:25:23;5.57;;;5.07;;
9524;SDS011;15940;48.734;9.112;2022-07-23T14:27:50;5.80;;;5.30;;
9524;SDS011;15940;48.734;9.112;2022-07-23T14:30:17;6.20;;;5.07;;
9524;SDS011;15940;48.734;9.112;2022-07-23T14:32:44;12.80;;;5.23;;
9524;SDS011;15940;48.734;9.112;2022-07-23T14:35:11;5.30;;;4.90;;
9524;SDS011;15940;48.734;9.112;2022-07-23T14:37:38;5.73;;;5.23;;
9524;SDS011;15940;48.734;9.112;2022-07-23T14:40:06;6.57;;;5.20;;
9524;SDS011;15940;48.734;9.112;2022-07-23T14:42:35;5.30;;;4.90;;
9524;SDS011;15940;48.734;9.112;2022-07-23T14:45:02;8.47;;;5.03;;
9524;SDS011;15940;48.734;9.112;2022-07-23T14:47:31;5.50;;;5.00;;
9524;SDS011;15940;48.734;9.112;2022-07-23T14:49:58;5.50;;;5.00;;
9524;SDS011;15940;48.734;9.112;2022-07-23T14:52:25;5.40;;;5.00;;
9524;SDS011;15940;48.734;9.112;2022-07-23T14:54:52;5.97;;;5.00;;
9524;SDS011;15940;48.734;9.112;2022-07-23T14:57:19;5.67;;;5.00;;
9524;SDS011;15940;48.734;9.112;2022-07-23T14:59:47;6.07;;;5.00;;
9524;SDS011;15940;48.734;9.112;2022-07-23T15:02:14;5.83;;;5.30;;
9524;SDS011;15940;48.734;9.112;2022-07-23T15:04:41;5.27;;;4.73;;
9524;SDS011;15940;48.734;9.112;2022-07-23T15:07:08;6.07;;;5.33;;
9524;SDS011;15940;48.734;9.112;2022-07-23T15:09:35;5.07;;;4.67;;
9524;SDS011;15940;48.734;9.112;2022-07-23T15:12:02;5.63;;;5.23;;
9524;SDS011;15940;48.734;9.112;2022-07-23T15:14:30;5.50;;;5.00;;
9524;SDS011;15940;48.734;9.112;2022-07-23T15:16:59;5.43;;;4.93;;
9524;SDS011;15940;48.734;9.112;2022-07-23T15:19:26;5.37;;;4.97;;
9524;SDS011;15940;48.734;9.112;2022-07-23T15:21:53;5.43;;;5.03;;
9524;SDS011;15940;48.734;9.112;2022-07-23T15:24:20;5.47;;;4.90;;